Joppa, Texas
Current Conditions -  °F | °C
As of 1:53 PM on Monday 26 Jan 2015 (Local Time) from KBMQ Reporting Station
Clear Clear  
Wind Chill: 68°   Ceiling: Unl
Heat Index: 68°   Visibility: 10mi
Dew Point: 33°   Wind: 13mph
Humidity: 27%   Direction: 280°W
Pressure: 30.21"   Gusts: NA
Location:  30.7452°N, 98.043°W
Report Text: KBMQ 261953Z AUTO 28011KT 10SM CLR 20/01 A3021 RMK AO2 SLP223 T02000006 $
Loading
Personal Weather Stations






























Interactive Weather Map New forecast layout! Learn more

10-Day Weather Forecast

Advertisements
Track Severe Weather on mobile